createdAt,value
2018-01-18T00:00:14.127Z,55.82
2018-01-18T00:00:45.790Z,56.43
2018-01-18T00:01:17.419Z,56.19
2018-01-18T00:01:49.050Z,55.92
2018-01-18T00:02:20.673Z,55.97
2018-01-18T00:02:52.298Z,56.13
2018-01-18T00:03:23.962Z,56.46
2018-01-18T00:03:55.587Z,56.22
2018-01-18T00:04:27.214Z,56.01
2018-01-18T00:04:58.838Z,56.04
2018-01-18T00:05:30.506Z,56.10
2018-01-18T00:06:02.126Z,56.51
2018-01-18T00:06:33.745Z,56.07
2018-01-18T00:07:05.374Z,56.63
2018-01-18T00:07:36.998Z,56.57
2018-01-18T00:08:08.670Z,56.65
2018-01-18T00:08:40.290Z,56.42
2018-01-18T00:09:11.908Z,56.24
2018-01-18T00:09:43.530Z,56.56
2018-01-18T00:10:15.149Z,56.26
2018-01-18T00:10:46.770Z,56.43
2018-01-18T00:11:18.393Z,56.29
2018-01-18T00:11:50.013Z,56.09
2018-01-18T00:12:21.634Z,56.81
2018-01-18T00:12:53.253Z,56.34
2018-01-18T00:13:24.921Z,56.49
2018-01-18T00:13:56.548Z,56.31
2018-01-18T00:14:28.170Z,56.32
2018-01-18T00:14:59.794Z,56.38
2018-01-18T00:15:31.420Z,56.22
2018-01-18T00:16:03.070Z,56.25
2018-01-18T00:16:34.694Z,56.34
2018-01-18T00:17:06.314Z,56.48
2018-01-18T00:17:37.942Z,56.51
2018-01-18T00:18:09.561Z,56.66
2018-01-18T00:18:41.226Z,56.62
2018-01-18T00:19:12.921Z,56.77
2018-01-18T00:19:44.602Z,56.72
2018-01-18T00:20:16.225Z,56.38
2018-01-18T00:20:47.876Z,56.99
2018-01-18T00:21:19.502Z,56.66
2018-01-18T00:21:51.122Z,56.02
2018-01-18T00:22:22.750Z,56.37
2018-01-18T00:22:54.642Z,56.01
2018-01-18T00:23:26.273Z,56.15
2018-01-18T00:23:57.934Z,55.89
2018-01-18T00:24:29.566Z,55.88
2018-01-18T00:25:01.186Z,56.10
2018-01-18T00:25:32.814Z,55.71
2018-01-18T00:26:04.478Z,55.59
2018-01-18T00:26:36.146Z,55.61
2018-01-18T00:27:07.773Z,55.69
2018-01-18T00:27:39.402Z,55.68
2018-01-18T00:28:11.025Z,55.61
2018-01-18T00:28:42.645Z,55.53
2018-01-18T00:29:14.294Z,55.51
2018-01-18T00:29:45.921Z,55.75
2018-01-18T00:30:17.546Z,55.77
2018-01-18T00:30:49.229Z,55.67
2018-01-18T00:31:20.850Z,55.70
2018-01-18T00:31:52.474Z,55.76
2018-01-18T00:32:24.101Z,55.85
2018-01-18T00:32:55.725Z,55.88
2018-01-18T00:33:27.346Z,55.69
2018-01-18T00:33:58.979Z,55.83
2018-01-18T00:34:30.606Z,55.98
2018-01-18T00:35:02.236Z,55.89
2018-01-18T00:35:33.867Z,55.79
2018-01-18T00:36:05.494Z,55.70
2018-01-18T00:36:37.118Z,55.75
2018-01-18T00:37:08.746Z,55.75
2018-01-18T00:37:40.369Z,55.83
2018-01-18T00:38:11.990Z,55.72
2018-01-18T00:38:43.614Z,55.72
2018-01-18T00:39:15.237Z,55.73
2018-01-18T00:39:46.865Z,55.60
2018-01-18T00:40:18.485Z,55.77
2018-01-18T00:40:50.110Z,55.76
2018-01-18T00:41:21.778Z,55.74
2018-01-18T00:41:53.405Z,55.69
2018-01-18T00:42:25.025Z,55.72
2018-01-18T00:42:56.653Z,55.68
2018-01-18T00:43:28.273Z,55.82
2018-01-18T00:43:59.934Z,55.64
2018-01-18T00:44:32.606Z,55.58
2018-01-18T00:45:04.230Z,55.53
2018-01-18T00:45:35.862Z,55.57
2018-01-18T00:46:07.491Z,55.83
2018-01-18T00:46:39.113Z,55.90
2018-01-18T00:47:10.751Z,55.72
2018-01-18T00:47:42.376Z,55.62
2018-01-18T00:48:14.005Z,55.73
2018-01-18T00:48:45.642Z,55.71
2018-01-18T00:49:17.322Z,55.83
2018-01-18T00:49:48.950Z,55.83
2018-01-18T00:50:20.574Z,55.81
2018-01-18T00:50:52.197Z,55.84
2018-01-18T00:51:23.827Z,55.92
2018-01-18T00:51:55.454Z,55.87
2018-01-18T00:52:27.082Z,55.62
2018-01-18T00:52:58.705Z,55.61
2018-01-18T00:53:30.334Z,55.61
2018-01-18T00:54:02.870Z,55.69
2018-01-18T00:54:34.550Z,55.56
2018-01-18T00:55:06.202Z,55.80
2018-01-18T00:55:37.839Z,55.62
2018-01-18T00:56:09.530Z,55.99
2018-01-18T00:56:41.185Z,55.73
2018-01-18T00:57:13.721Z,55.59
2018-01-18T00:57:45.407Z,55.49
2018-01-18T00:58:17.149Z,55.69
2018-01-18T00:58:48.810Z,55.36
2018-01-18T00:59:20.512Z,55.49
2018-01-18T00:59:52.154Z,55.44
2018-01-18T01:00:23.796Z,55.58
2018-01-18T01:00:55.443Z,55.37
2018-01-18T01:01:27.082Z,55.26
2018-01-18T01:01:58.725Z,55.34
2018-01-18T01:02:30.376Z,55.22
2018-01-18T01:03:02.031Z,55.45
2018-01-18T01:03:33.667Z,55.32
2018-01-18T01:04:05.334Z,55.27
2018-01-18T01:04:37.008Z,55.32
2018-01-18T01:05:08.634Z,55.25
2018-01-18T01:05:40.262Z,55.16
2018-01-18T01:06:11.881Z,55.14
2018-01-18T01:06:43.502Z,55.03
2018-01-18T01:07:15.126Z,54.89
2018-01-18T01:07:46.746Z,54.97
2018-01-18T01:08:18.367Z,55.03
2018-01-18T01:08:49.990Z,55.02
2018-01-18T01:09:21.614Z,55.02
2018-01-18T01:09:53.273Z,55.05
2018-01-18T01:10:24.893Z,55.11
2018-01-18T01:10:56.514Z,54.97
2018-01-18T01:11:28.185Z,55.02
2018-01-18T01:11:59.806Z,54.95
2018-01-18T01:12:31.434Z,55.04
2018-01-18T01:13:03.057Z,54.92
2018-01-18T01:13:34.678Z,54.92
2018-01-18T01:14:06.297Z,55.00
2018-01-18T01:14:37.934Z,54.89
2018-01-18T01:15:09.594Z,55.11
2018-01-18T01:15:41.223Z,54.89
2018-01-18T01:16:12.854Z,54.89
2018-01-18T01:16:44.523Z,54.91
2018-01-18T01:17:16.150Z,54.82
2018-01-18T01:17:47.782Z,54.85
2018-01-18T01:18:19.446Z,54.81
2018-01-18T01:18:51.078Z,54.77
2018-01-18T01:19:22.706Z,54.76
2018-01-18T01:19:54.375Z,54.69
2018-01-18T01:20:26.007Z,54.64
2018-01-18T01:20:57.634Z,54.75
2018-01-18T01:21:29.262Z,54.71
2018-01-18T01:22:00.894Z,54.81
2018-01-18T01:22:32.523Z,54.80
2018-01-18T01:23:04.158Z,54.81
2018-01-18T01:23:35.792Z,54.81
2018-01-18T01:24:07.414Z,54.61
2018-01-18T01:24:39.042Z,54.63
2018-01-18T01:25:10.706Z,54.94
2018-01-18T01:25:42.334Z,54.85
2018-01-18T01:26:13.963Z,54.93
2018-01-18T01:26:45.629Z,55.10
2018-01-18T01:27:17.252Z,54.99
2018-01-18T01:27:48.886Z,55.24
2018-01-18T01:28:20.520Z,55.40
2018-01-18T01:28:52.163Z,55.16
2018-01-18T01:29:23.818Z,55.00
2018-01-18T01:29:55.454Z,54.96
2018-01-18T01:30:27.078Z,55.23
2018-01-18T01:30:58.763Z,55.04
2018-01-18T01:31:30.398Z,55.27
2018-01-18T01:32:02.062Z,55.16
2018-01-18T01:32:33.694Z,55.37
2018-01-18T01:33:05.350Z,55.62
2018-01-18T01:33:36.976Z,56.39
2018-01-18T01:34:08.606Z,56.23
2018-01-18T01:34:40.238Z,56.11
2018-01-18T01:35:11.861Z,56.45
2018-01-18T01:35:43.481Z,56.06
2018-01-18T01:36:15.141Z,55.89
2018-01-18T01:36:46.810Z,55.92
2018-01-18T01:37:18.429Z,56.05
2018-01-18T01:37:50.049Z,55.84
2018-01-18T01:38:21.674Z,55.69
2018-01-18T01:38:53.302Z,55.66
2018-01-18T01:39:24.939Z,55.72
2018-01-18T01:39:56.570Z,55.82
2018-01-18T01:40:28.196Z,55.74
2018-01-18T01:40:59.822Z,55.74
2018-01-18T01:41:31.454Z,55.71
2018-01-18T01:42:03.136Z,55.64
2018-01-18T01:42:34.762Z,55.70
2018-01-18T01:43:06.382Z,55.84
2018-01-18T01:43:38.006Z,56.00
2018-01-18T01:44:09.634Z,56.04
2018-01-18T01:44:41.253Z,56.18
2018-01-18T01:45:12.882Z,56.03
2018-01-18T01:45:44.518Z,56.13
2018-01-18T01:46:16.137Z,56.10
2018-01-18T01:46:47.765Z,56.29
2018-01-18T01:47:19.433Z,56.24
2018-01-18T01:47:51.053Z,56.21
2018-01-18T01:48:22.677Z,56.14
2018-01-18T01:48:54.298Z,56.11
2018-01-18T01:49:25.926Z,56.28
2018-01-18T01:49:57.554Z,56.40
2018-01-18T01:50:29.186Z,56.26
2018-01-18T01:51:00.805Z,56.42
2018-01-18T01:51:32.425Z,56.54
2018-01-18T01:52:04.046Z,56.44
2018-01-18T01:52:35.669Z,56.30
2018-01-18T01:53:07.293Z,56.35
2018-01-18T01:53:38.926Z,56.39
2018-01-18T01:54:10.553Z,56.47
2018-01-18T01:54:42.178Z,56.52
2018-01-18T01:55:13.805Z,56.83
2018-01-18T01:55:45.435Z,56.81
2018-01-18T01:56:17.061Z,56.87
2018-01-18T01:56:48.677Z,57.00
2018-01-18T01:57:20.301Z,56.92
2018-01-18T01:57:51.926Z,57.09
2018-01-18T01:58:23.545Z,57.02
2018-01-18T01:58:55.174Z,56.98
2018-01-18T01:59:26.793Z,56.83
2018-01-18T01:59:58.434Z,56.82
2018-01-18T02:00:30.100Z,57.03
2018-01-18T02:01:01.805Z,56.84
2018-01-18T02:01:33.454Z,57.01
2018-01-18T02:02:05.142Z,56.84
2018-01-18T02:02:36.767Z,56.74
2018-01-18T02:03:08.436Z,56.68
2018-01-18T02:03:40.062Z,56.68
2018-01-18T02:04:11.689Z,56.72
2018-01-18T02:04:43.318Z,56.60
2018-01-18T02:05:14.942Z,56.69
2018-01-18T02:05:46.566Z,56.59
2018-01-18T02:06:18.202Z,56.54
2018-01-18T02:06:49.857Z,56.69
2018-01-18T02:07:21.486Z,56.66
2018-01-18T02:07:53.173Z,56.59
2018-01-18T02:08:24.793Z,56.70
2018-01-18T02:08:56.435Z,56.83
2018-01-18T02:09:28.066Z,56.99
2018-01-18T02:09:59.721Z,56.86
2018-01-18T02:10:31.355Z,56.89
2018-01-18T02:11:02.973Z,57.06
2018-01-18T02:11:34.602Z,56.98
2018-01-18T02:12:06.226Z,56.92
2018-01-18T02:12:37.849Z,57.06
2018-01-18T02:13:09.522Z,56.95
2018-01-18T02:13:41.142Z,56.83
2018-01-18T02:14:12.809Z,56.82
2018-01-18T02:14:44.438Z,56.78
2018-01-18T02:15:16.067Z,56.87
2018-01-18T02:15:51.528Z,56.87
2018-01-18T02:16:24.010Z,56.85
2018-01-18T02:16:55.682Z,56.83
2018-01-18T02:17:27.314Z,56.78
2018-01-18T02:17:58.936Z,56.81
2018-01-18T02:18:30.607Z,56.95
2018-01-18T02:19:02.230Z,56.44
2018-01-18T02:19:33.849Z,57.06
2018-01-18T02:20:05.509Z,56.87
2018-01-18T02:20:37.133Z,56.79
2018-01-18T02:21:08.758Z,57.04
2018-01-18T02:21:40.390Z,56.85
2018-01-18T02:22:12.013Z,57.12
2018-01-18T02:22:43.634Z,57.28
2018-01-18T02:23:15.253Z,57.02
2018-01-18T02:23:46.873Z,57.11
2018-01-18T02:24:18.498Z,56.87
2018-01-18T02:24:50.161Z,56.96
2018-01-18T02:25:21.786Z,56.74
2018-01-18T02:25:53.466Z,56.62
2018-01-18T02:26:25.091Z,56.67
2018-01-18T02:26:56.715Z,56.59
2018-01-18T02:27:28.338Z,56.51
2018-01-18T02:27:59.957Z,56.70
2018-01-18T02:28:31.586Z,56.52
2018-01-18T02:29:03.225Z,56.27
2018-01-18T02:29:34.857Z,56.58
2018-01-18T02:30:06.495Z,56.55
2018-01-18T02:30:38.158Z,56.79
2018-01-18T02:31:09.842Z,56.27
2018-01-18T02:31:41.465Z,56.52
2018-01-18T02:32:13.086Z,56.33
2018-01-18T02:32:44.751Z,56.51
2018-01-18T02:33:16.438Z,56.58
2018-01-18T02:33:48.104Z,56.55
2018-01-18T02:34:23.532Z,56.60
2018-01-18T02:34:55.172Z,56.29
2018-01-18T02:35:26.834Z,56.49
2018-01-18T02:35:58.475Z,56.31
2018-01-18T02:36:30.243Z,56.18
2018-01-18T02:37:01.877Z,56.19
2018-01-18T02:37:33.514Z,56.33
2018-01-18T02:38:05.164Z,56.29
2018-01-18T02:38:36.794Z,56.21
2018-01-18T02:39:08.427Z,56.15
2018-01-18T02:39:40.059Z,56.21
2018-01-18T02:40:11.689Z,56.31
2018-01-18T02:40:43.318Z,56.26
2018-01-18T02:41:14.977Z,56.55
2018-01-18T02:41:46.598Z,56.50
2018-01-18T02:42:18.231Z,56.49
2018-01-18T02:42:49.867Z,56.51
2018-01-18T02:43:21.494Z,56.39
2018-01-18T02:43:53.123Z,56.28
2018-01-18T02:44:24.785Z,56.37
2018-01-18T02:44:56.415Z,56.38
2018-01-18T02:45:28.043Z,56.18
2018-01-18T02:45:59.669Z,56.31
2018-01-18T02:46:31.302Z,56.33
2018-01-18T02:47:02.931Z,56.32
2018-01-18T02:47:34.561Z,56.41
2018-01-18T02:48:06.229Z,56.07
2018-01-18T02:48:37.858Z,56.29
2018-01-18T02:49:09.485Z,56.23
2018-01-18T02:49:41.136Z,56.44
2018-01-18T02:50:12.762Z,56.32
2018-01-18T02:50:44.398Z,56.42
2018-01-18T02:51:16.021Z,56.35
2018-01-18T02:51:47.642Z,56.19
2018-01-18T02:52:19.270Z,56.34
2018-01-18T02:52:50.938Z,56.25
2018-01-18T02:53:22.562Z,56.35
2018-01-18T02:53:54.191Z,56.24
2018-01-18T02:54:25.830Z,56.35
2018-01-18T02:54:57.462Z,56.24
2018-01-18T02:55:29.094Z,56.19
2018-01-18T02:56:01.779Z,56.48
2018-01-18T02:56:33.415Z,56.33
2018-01-18T02:57:05.062Z,56.41
2018-01-18T02:57:36.735Z,56.31
2018-01-18T02:58:09.020Z,56.15
2018-01-18T02:58:40.654Z,56.33
2018-01-18T02:59:12.290Z,56.23
2018-01-18T02:59:43.956Z,56.22
2018-01-18T03:00:15.592Z,56.25
2018-01-18T03:00:47.222Z,56.17
2018-01-18T03:01:18.847Z,56.48
2018-01-18T03:01:50.522Z,56.63
2018-01-18T03:02:22.151Z,56.38
2018-01-18T03:02:53.820Z,56.37
2018-01-18T03:03:25.450Z,56.36
2018-01-18T03:03:57.082Z,56.27
2018-01-18T03:04:28.714Z,56.50
2018-01-18T03:05:00.349Z,56.28
2018-01-18T03:05:31.974Z,56.52
2018-01-18T03:06:03.649Z,56.27
2018-01-18T03:06:35.279Z,56.21
2018-01-18T03:07:06.906Z,56.38
2018-01-18T03:07:38.542Z,56.53
2018-01-18T03:08:10.210Z,56.57
2018-01-18T03:08:41.852Z,56.56
2018-01-18T03:09:13.518Z,56.46
2018-01-18T03:09:45.146Z,56.53
2018-01-18T03:10:16.774Z,56.52
2018-01-18T03:10:48.403Z,56.55
2018-01-18T03:11:20.026Z,56.49
2018-01-18T03:11:51.695Z,56.36
2018-01-18T03:12:23.322Z,56.38
2018-01-18T03:12:54.989Z,56.31
2018-01-18T03:13:26.660Z,56.34
2018-01-18T03:13:58.294Z,56.45
2018-01-18T03:14:29.922Z,56.56
2018-01-18T03:15:01.595Z,56.56
2018-01-18T03:15:33.224Z,56.48
2018-01-18T03:16:04.971Z,56.69
2018-01-18T03:16:36.643Z,56.64
2018-01-18T03:17:08.340Z,56.78
2018-01-18T03:17:40.005Z,56.72
2018-01-18T03:18:11.648Z,56.58
2018-01-18T03:18:43.302Z,56.62
2018-01-18T03:19:14.947Z,56.83
2018-01-18T03:19:46.634Z,56.55
2018-01-18T03:20:18.297Z,56.57
2018-01-18T03:20:49.934Z,56.82
2018-01-18T03:21:21.566Z,56.69
2018-01-18T03:21:53.218Z,56.61
2018-01-18T03:22:24.854Z,56.88
2018-01-18T03:22:56.491Z,56.69
2018-01-18T03:23:28.134Z,56.67
2018-01-18T03:23:59.868Z,56.67
2018-01-18T03:24:31.587Z,57.26
2018-01-18T03:25:03.251Z,56.81
2018-01-18T03:25:34.918Z,56.83
2018-01-18T03:26:06.579Z,56.95
2018-01-18T03:26:38.254Z,57.15
2018-01-18T03:27:09.915Z,57.16
2018-01-18T03:27:41.546Z,56.96
2018-01-18T03:28:13.207Z,57.13
2018-01-18T03:28:44.880Z,57.06
2018-01-18T03:29:16.586Z,56.98
2018-01-18T03:29:48.222Z,56.89
2018-01-18T03:30:19.877Z,57.01
2018-01-18T03:30:51.523Z,57.26
2018-01-18T03:31:23.160Z,56.99
2018-01-18T03:31:54.814Z,57.28
2018-01-18T03:32:26.456Z,56.96
2018-01-18T03:32:58.089Z,57.04
2018-01-18T03:33:29.735Z,57.06
2018-01-18T03:34:01.380Z,57.40
2018-01-18T03:34:33.091Z,57.43
2018-01-18T03:35:04.767Z,57.50
2018-01-18T03:35:36.432Z,57.20
2018-01-18T03:36:08.096Z,57.03
2018-01-18T03:44:04.782Z,57.19
2018-01-18T03:44:36.492Z,57.24
2018-01-18T03:45:08.135Z,57.16
2018-01-18T03:45:39.794Z,57.13
2018-01-18T03:46:11.442Z,56.97
2018-01-18T03:46:43.121Z,57.15
2018-01-18T03:47:14.812Z,56.98
2018-01-18T03:47:46.452Z,57.06
2018-01-18T03:48:18.078Z,57.20
2018-01-18T03:48:49.714Z,57.12
2018-01-18T03:49:21.347Z,56.95
2018-01-18T03:49:52.973Z,57.30
2018-01-18T03:50:24.611Z,57.34
2018-01-18T03:50:56.251Z,57.63
2018-01-18T03:51:27.882Z,57.28
2018-01-18T03:51:59.542Z,57.50
2018-01-18T03:52:31.228Z,57.35
2018-01-18T03:53:02.959Z,57.57
2018-01-18T03:53:34.781Z,57.24
2018-01-18T03:54:06.442Z,57.11
2018-01-18T03:54:38.162Z,57.51
2018-01-18T03:55:09.876Z,57.44
2018-01-18T03:55:41.522Z,57.64
2018-01-18T03:56:13.170Z,57.32
2018-01-18T03:56:44.803Z,57.35
2018-01-18T03:57:16.434Z,57.28
2018-01-18T03:57:48.065Z,57.04
2018-01-18T03:58:19.746Z,57.16
2018-01-18T03:58:51.374Z,57.33
2018-01-18T03:59:22.995Z,57.24
2018-01-18T03:59:54.622Z,57.20
2018-01-18T04:00:26.482Z,57.22
2018-01-18T04:00:58.195Z,57.24
2018-01-18T04:01:29.844Z,57.09
2018-01-18T04:02:01.483Z,57.03
2018-01-18T04:02:33.166Z,57.33
2018-01-18T04:03:04.810Z,57.01
2018-01-18T04:03:36.607Z,56.95
2018-01-18T04:04:08.247Z,56.97
2018-01-18T04:04:39.899Z,56.91
2018-01-18T04:05:11.535Z,57.02
2018-01-18T04:05:43.169Z,56.93
2018-01-18T04:06:14.798Z,57.06
2018-01-18T04:06:46.426Z,57.04
2018-01-18T04:07:18.059Z,57.02
2018-01-18T04:07:49.873Z,57.17
2018-01-18T04:08:22.268Z,57.02
2018-01-18T04:08:53.953Z,57.22
2018-01-18T04:09:25.578Z,57.08
2018-01-18T04:09:57.205Z,57.01
2018-01-18T04:10:28.830Z,56.85
2018-01-18T04:11:00.458Z,57.04
2018-01-18T04:11:32.082Z,57.03
2018-01-18T04:12:03.714Z,57.25
2018-01-18T04:12:35.342Z,57.19
2018-01-18T04:13:06.970Z,57.26
2018-01-18T04:13:38.599Z,57.05
2018-01-18T04:14:10.271Z,57.23
2018-01-18T04:14:41.922Z,57.31
2018-01-18T04:15:13.550Z,57.37
2018-01-18T04:15:45.190Z,57.17
2018-01-18T04:16:16.815Z,57.24
2018-01-18T04:16:48.446Z,57.21
2018-01-18T04:17:20.075Z,57.42
2018-01-18T04:17:51.706Z,57.39
2018-01-18T04:18:23.366Z,57.41
2018-01-18T04:18:55.033Z,57.28
2018-01-18T04:19:26.667Z,57.31
2018-01-18T04:19:58.289Z,57.42
2018-01-18T04:20:29.914Z,57.42
2018-01-18T04:21:01.573Z,57.49
2018-01-18T04:21:33.197Z,57.65
2018-01-18T04:22:04.850Z,57.72
2018-01-18T04:22:36.529Z,57.93
2018-01-18T04:23:08.166Z,57.86
2018-01-18T04:23:39.838Z,57.91
2018-01-18T04:24:11.533Z,57.97
2018-01-18T04:24:43.203Z,58.15
2018-01-18T04:25:14.854Z,58.11
2018-01-18T04:25:46.477Z,58.12
2018-01-18T04:26:19.776Z,58.03
2018-01-18T04:26:51.430Z,58.09
2018-01-18T04:27:23.435Z,58.07
2018-01-18T04:27:55.062Z,58.16
2018-01-18T04:28:26.874Z,58.11
2018-01-18T04:29:00.597Z,58.76
2018-01-18T04:29:32.804Z,58.38
2018-01-18T04:30:04.451Z,58.25
2018-01-18T04:30:36.094Z,57.95
2018-01-18T04:31:08.499Z,57.99
2018-01-18T04:31:40.142Z,57.82
2018-01-18T04:32:11.778Z,57.68
2018-01-18T04:32:43.441Z,58.02
2018-01-18T04:33:18.323Z,57.35
2018-01-18T04:33:49.998Z,57.39
2018-01-18T04:34:21.630Z,57.41
2018-01-18T04:34:53.272Z,57.37
2018-01-18T04:35:24.918Z,57.34
2018-01-18T04:35:56.551Z,57.40
2018-01-18T04:36:28.183Z,57.49
2018-01-18T04:36:59.816Z,57.51
2018-01-18T04:37:31.486Z,57.53
2018-01-18T04:38:03.123Z,57.56
2018-01-18T04:38:34.758Z,57.44
2018-01-18T04:39:06.395Z,57.51
2018-01-18T04:39:38.071Z,57.42
2018-01-18T04:40:09.711Z,57.43
2018-01-18T04:40:41.351Z,57.65
2018-01-18T04:41:12.987Z,57.48
2018-01-18T04:41:44.642Z,57.47
2018-01-18T04:42:16.285Z,57.31
2018-01-18T04:42:47.962Z,57.10
2018-01-18T04:43:19.632Z,57.48
2018-01-18T04:43:51.271Z,57.24
2018-01-18T04:44:22.948Z,57.51
2018-01-18T04:44:54.583Z,57.23
2018-01-18T04:45:26.235Z,57.21
2018-01-18T04:45:57.858Z,57.25
2018-01-18T04:46:29.487Z,57.37
2018-01-18T04:47:01.110Z,57.33
2018-01-18T04:47:32.734Z,57.34
2018-01-18T04:48:04.362Z,57.37
2018-01-18T04:48:36.250Z,57.31
2018-01-18T04:49:07.879Z,57.33
2018-01-18T04:49:39.518Z,57.31
2018-01-18T04:50:11.154Z,57.01
2018-01-18T04:50:42.779Z,56.97
2018-01-18T04:51:14.406Z,56.97
2018-01-18T04:51:46.035Z,56.84
2018-01-18T04:52:17.666Z,57.01
2018-01-18T04:52:50.407Z,56.65
2018-01-18T04:53:22.051Z,56.71
2018-01-18T04:53:53.734Z,56.67
2018-01-18T04:54:25.367Z,56.68
2018-01-18T04:54:57.004Z,56.77
2018-01-18T04:55:28.656Z,56.61
2018-01-18T04:56:00.291Z,56.76
2018-01-18T04:56:31.947Z,56.57
2018-01-18T04:57:03.589Z,56.49
2018-01-18T04:57:35.235Z,56.43
2018-01-18T04:58:06.875Z,56.29
2018-01-18T04:58:38.583Z,56.31
2018-01-18T04:59:10.222Z,56.20
2018-01-18T04:59:41.866Z,56.25
2018-01-18T05:00:13.519Z,56.34
2018-01-18T05:00:45.152Z,56.53
2018-01-18T05:01:16.794Z,56.39
2018-01-18T05:01:48.483Z,56.20
2018-01-18T05:02:20.177Z,56.03
2018-01-18T05:02:51.802Z,56.07
2018-01-18T05:03:23.430Z,56.10
2018-01-18T05:03:55.058Z,56.37
2018-01-18T05:04:27.633Z,56.47
2018-01-18T05:04:59.261Z,56.15
2018-01-18T05:05:31.211Z,56.08
2018-01-18T05:06:02.846Z,56.37
2018-01-18T05:06:36.462Z,55.95
2018-01-18T05:07:08.151Z,56.16
2018-01-18T05:07:39.802Z,55.71
2018-01-18T05:08:11.425Z,55.56
2018-01-18T05:08:43.062Z,55.64
2018-01-18T05:09:14.693Z,55.39
2018-01-18T05:09:46.314Z,55.13
2018-01-18T05:10:17.994Z,55.29
2018-01-18T05:10:49.621Z,55.56
2018-01-18T05:11:21.290Z,56.91
2018-01-18T05:11:53.000Z,55.68
2018-01-18T05:12:25.270Z,55.58
2018-01-18T05:12:56.918Z,56.16
2018-01-18T05:13:28.596Z,56.16
2018-01-18T05:14:00.248Z,56.27
2018-01-18T05:14:32.755Z,56.61
2018-01-18T05:15:04.386Z,56.60
2018-01-18T05:15:36.047Z,56.78
2018-01-18T05:16:07.673Z,56.61
2018-01-18T05:16:39.307Z,56.46
2018-01-18T05:17:10.970Z,56.35
2018-01-18T05:17:42.594Z,56.30
2018-01-18T05:18:14.262Z,56.11
2018-01-18T05:18:45.933Z,56.00
2018-01-18T05:19:17.558Z,55.92
2018-01-18T05:19:49.334Z,56.01
2018-01-18T05:20:20.962Z,56.05
2018-01-18T05:20:52.621Z,56.14
2018-01-18T05:21:24.286Z,56.10
2018-01-18T05:21:55.920Z,56.02
2018-01-18T05:22:27.546Z,56.11
2018-01-18T05:22:59.165Z,56.11
2018-01-18T05:23:30.792Z,56.10
2018-01-18T05:24:02.422Z,56.02
2018-01-18T05:24:34.053Z,56.03
2018-01-18T05:25:05.726Z,56.05
2018-01-18T05:25:37.354Z,56.00
2018-01-18T05:26:08.986Z,56.04
2018-01-18T05:26:40.662Z,56.04
2018-01-18T05:27:12.286Z,56.08
2018-01-18T05:27:43.916Z,56.02
2018-01-18T05:28:15.544Z,55.98
2018-01-18T05:28:47.181Z,55.89
2018-01-18T05:29:18.801Z,55.84
2018-01-18T05:29:50.422Z,55.79
2018-01-18T05:30:22.090Z,55.70
2018-01-18T05:30:53.730Z,55.69
2018-01-18T05:31:25.370Z,55.68
2018-01-18T05:31:57.008Z,55.69
2018-01-18T05:32:28.671Z,55.63
2018-01-18T05:33:00.302Z,55.67
2018-01-18T05:33:31.926Z,55.68
2018-01-18T05:34:03.553Z,55.66
2018-01-18T05:34:35.176Z,55.66
2018-01-18T05:35:06.802Z,55.66
2018-01-18T05:35:38.465Z,55.62
2018-01-18T05:36:10.086Z,55.56
2018-01-18T05:36:41.709Z,55.56
2018-01-18T05:37:13.374Z,55.59
2018-01-18T05:37:45.008Z,55.53
2018-01-18T05:38:16.638Z,55.54
2018-01-18T05:38:48.265Z,55.52
2018-01-18T05:39:19.885Z,55.53
2018-01-18T05:39:51.513Z,55.54
2018-01-18T05:40:23.137Z,55.58
2018-01-18T05:40:54.762Z,55.54
2018-01-18T05:41:26.389Z,55.47
2018-01-18T05:41:58.053Z,55.49
2018-01-18T05:42:29.686Z,55.51
2018-01-18T05:43:01.314Z,55.40
2018-01-18T05:43:32.943Z,55.41
2018-01-18T05:44:04.578Z,55.36
2018-01-18T05:44:36.210Z,55.38
2018-01-18T05:45:07.837Z,55.38
2018-01-18T05:45:39.462Z,55.37
2018-01-18T05:46:11.094Z,55.29
2018-01-18T05:46:42.727Z,55.26
2018-01-18T05:47:14.409Z,55.20
2018-01-18T05:47:46.029Z,55.17
2018-01-18T05:48:17.657Z,55.16
2018-01-18T05:48:49.287Z,55.15
2018-01-18T05:49:20.910Z,55.23
2018-01-18T05:49:52.530Z,55.17
2018-01-18T05:50:24.150Z,55.11
2018-01-18T05:50:55.778Z,55.07
2018-01-18T05:51:27.401Z,55.04
2018-01-18T05:51:59.032Z,55.00
2018-01-18T05:52:30.703Z,55.00
2018-01-18T05:53:02.331Z,54.97
2018-01-18T05:53:36.141Z,54.94
2018-01-18T05:54:07.765Z,54.87
2018-01-18T05:54:39.402Z,54.84
2018-01-18T05:55:11.035Z,54.78
2018-01-18T05:55:42.750Z,54.66
2018-01-18T05:56:14.372Z,54.67
2018-01-18T05:56:46.019Z,54.65
2018-01-18T05:57:17.641Z,53.90
2018-01-18T05:57:49.265Z,53.30
2018-01-18T05:58:20.886Z,53.23
2018-01-18T05:58:52.553Z,53.48
2018-01-18T05:59:24.222Z,53.49
2018-01-18T05:59:55.850Z,53.36
2018-01-18T06:00:27.473Z,53.27
2018-01-18T06:00:59.098Z,53.21
2018-01-18T06:01:30.730Z,53.02
2018-01-18T06:02:02.350Z,52.99
2018-01-18T06:02:33.974Z,52.92
2018-01-18T06:03:05.597Z,52.91
2018-01-18T06:03:37.222Z,52.89
2018-01-18T06:04:08.845Z,52.83
2018-01-18T06:04:40.523Z,52.79
2018-01-18T06:05:12.154Z,52.74
2018-01-18T06:05:43.782Z,52.83
2018-01-18T06:06:15.405Z,52.84
2018-01-18T06:06:47.038Z,52.92
2018-01-18T06:07:18.661Z,52.82
2018-01-18T06:07:50.332Z,52.69
2018-01-18T06:08:21.942Z,52.63
2018-01-18T06:08:53.565Z,52.66
2018-01-18T06:09:25.184Z,52.65
2018-01-18T06:09:56.938Z,52.60
2018-01-18T06:10:28.566Z,52.55
2018-01-18T06:11:00.194Z,52.47
2018-01-18T06:11:31.817Z,52.41
2018-01-18T06:12:03.447Z,52.40
2018-01-18T06:12:35.069Z,52.48
2018-01-18T06:13:06.694Z,52.41
2018-01-18T06:13:38.325Z,52.44
2018-01-18T06:14:09.955Z,52.51
2018-01-18T06:14:41.578Z,52.50
2018-01-18T06:15:13.250Z,52.42
2018-01-18T06:15:44.876Z,52.45
2018-01-18T06:16:16.505Z,52.39
2018-01-18T06:16:48.136Z,52.44
2018-01-18T06:17:19.753Z,52.42
2018-01-18T06:17:51.421Z,52.42
2018-01-18T06:18:23.050Z,52.37
2018-01-18T06:18:54.674Z,52.34
2018-01-18T06:19:26.294Z,52.43
2018-01-18T06:19:57.913Z,52.46
2018-01-18T06:20:29.542Z,52.40
2018-01-18T06:21:01.165Z,52.39
2018-01-18T06:21:33.205Z,52.48
2018-01-18T06:22:04.829Z,52.48
2018-01-18T06:22:36.494Z,52.39
2018-01-18T06:23:08.114Z,52.39
2018-01-18T06:23:39.734Z,52.37
2018-01-18T06:24:11.393Z,52.41
2018-01-18T06:24:43.013Z,52.44
2018-01-18T06:25:14.638Z,52.36
2018-01-18T06:25:46.257Z,52.34
2018-01-18T06:26:17.874Z,52.45
2018-01-18T06:26:49.498Z,52.60
2018-01-18T06:27:21.130Z,52.66
2018-01-18T06:27:52.758Z,52.74
2018-01-18T06:28:24.386Z,52.78
2018-01-18T06:28:56.010Z,52.79
2018-01-18T06:29:27.686Z,52.81
2018-01-18T06:29:59.314Z,52.79
2018-01-18T06:30:30.933Z,52.74
2018-01-18T06:31:02.553Z,52.73
2018-01-18T06:31:34.182Z,52.79
2018-01-18T06:32:05.810Z,52.76
2018-01-18T06:32:37.434Z,52.78
2018-01-18T06:33:09.068Z,52.80
2018-01-18T06:33:40.698Z,52.72
2018-01-18T06:34:12.320Z,52.85
2018-01-18T06:34:43.982Z,52.87
2018-01-18T06:35:15.609Z,52.93
2018-01-18T06:35:47.234Z,52.98
2018-01-18T06:36:18.853Z,53.07
2018-01-18T06:36:50.482Z,53.00
2018-01-18T06:37:22.110Z,52.99
2018-01-18T06:37:53.738Z,52.92
2018-01-18T06:38:25.453Z,52.91
2018-01-18T06:38:57.070Z,52.99
2018-01-18T06:39:28.690Z,52.90
2018-01-18T06:40:00.322Z,53.02
2018-01-18T06:40:31.944Z,53.00
2018-01-18T06:41:03.565Z,53.02
2018-01-18T06:41:35.185Z,53.02
2018-01-18T06:42:06.810Z,52.97
2018-01-18T06:42:38.433Z,52.98
2018-01-18T06:43:10.058Z,53.08
2018-01-18T06:43:41.687Z,53.09
2018-01-18T06:44:13.320Z,53.08
2018-01-18T06:44:44.946Z,53.09
2018-01-18T06:45:16.565Z,53.13
2018-01-18T06:45:48.225Z,53.15
2018-01-18T06:46:19.853Z,53.16
2018-01-18T06:46:51.474Z,53.10
2018-01-18T06:47:23.093Z,53.02
2018-01-18T06:47:54.718Z,53.00
2018-01-18T06:48:26.345Z,53.03
2018-01-18T06:48:57.974Z,53.12
2018-01-18T06:49:29.593Z,53.21
2018-01-18T06:50:01.216Z,53.24
2018-01-18T06:50:32.841Z,53.28
2018-01-18T06:51:04.506Z,53.34
2018-01-18T06:51:36.139Z,53.37
2018-01-18T06:52:07.766Z,53.36
2018-01-18T06:52:39.390Z,53.38
2018-01-18T06:53:11.017Z,53.43
2018-01-18T06:53:42.642Z,53.47
2018-01-18T06:54:14.288Z,53.54
2018-01-18T06:54:45.914Z,53.49
2018-01-18T06:55:17.538Z,53.46